Time;durP1;ratioP1;P1;durP2;ratioP2;P2;SDS_P1;SDS_P2;PMS_P1;PMS_P2;Temp;Humidity;BMP_temperature;BMP_pressure;BME280_temperature;BME280_humidity;BME280_pressure;Samples;Min_cycle;Max_cycle;Signal;HPM_P1;HPM_P2
2021/12/18 00:00:49;;;;;;;0.00;0.00;;;;;;;;;;4871329;29;20080;-80
2021/12/18 00:03:16;;;;;;;0.00;0.00;;;;;;;;;;4868384;29;20040;-80
2021/12/18 00:05:43;;;;;;;0.00;0.00;;;;;;;;;;4853674;29;20043;-81
2021/12/18 00:08:09;;;;;;;0.00;0.00;;;;;;;;;;4865381;29;20062;-81
2021/12/18 00:10:35;;;;;;;0.00;0.00;;;;;;;;;;4850031;29;20051;-80
2021/12/18 00:13:02;;;;;;;0.00;0.00;;;;;;;;;;4852892;29;20140;-81
2021/12/18 00:15:29;;;;;;;0.00;0.00;;;;;;;;;;4869813;29;20580;-80
2021/12/18 00:17:56;;;;;;;0.00;0.00;;;;;;;;;;4854198;29;20040;-81
2021/12/18 00:20:24;;;;;;;0.00;0.00;;;;;;;;;;4847895;29;20044;-81
2021/12/18 00:22:50;;;;;;;0.00;0.00;;;;;;;;;;4855873;29;20295;-82
2021/12/18 00:25:17;;;;;;;0.00;0.00;;;;;;;;;;4856993;29;20024;-81
2021/12/18 00:27:43;;;;;;;0.00;0.00;;;;;;;;;;4852499;29;20040;-81
2021/12/18 00:30:09;;;;;;;0.00;0.00;;;;;;;;;;4863041;29;20037;-81
2021/12/18 00:32:36;;;;;;;0.00;0.00;;;;;;;;;;4856624;29;20049;-80
2021/12/18 00:35:02;;;;;;;0.00;0.00;;;;;;;;;;4869950;29;20556;-80
2021/12/18 00:37:28;;;;;;;0.00;0.00;;;;;;;;;;4855527;29;20304;-80
2021/12/18 00:39:57;;;;;;;0.10;0.10;;;;;;;;;;4868767;29;20068;-81
2021/12/18 00:42:41;;;;;;;0.00;0.00;;;;;;;;;;4854856;29;20093;-80
2021/12/18 00:45:08;;;;;;;0.00;0.00;;;;;;;;;;4868684;29;20051;-80
2021/12/18 00:47:34;;;;;;;0.00;0.00;;;;;;;;;;4864428;29;20045;-81
2021/12/18 00:50:00;;;;;;;0.00;0.00;;;;;;;;;;4854525;29;20030;-81
2021/12/18 00:52:27;;;;;;;0.00;0.00;;;;;;;;;;4854306;29;20040;-81
2021/12/18 00:54:53;;;;;;;0.00;0.00;;;;;;;;;;4856820;29;20048;-80
2021/12/18 00:57:20;;;;;;;0.00;0.00;;;;;;;;;;4853227;29;20043;-80
2021/12/18 00:59:48;;;;;;;0.00;0.00;;;;;;;;;;4857098;29;20029;-82
2021/12/18 01:02:15;;;;;;;0.00;0.00;;;;;;;;;;4853298;29;20838;-80
2021/12/18 01:04:41;;;;;;;0.00;0.00;;;;;;;;;;4851004;29;20037;-80
2021/12/18 01:07:07;;;;;;;0.00;0.00;;;;;;;;;;4867389;29;20044;-80
2021/12/18 01:10:01;;;;;;;0.00;0.00;;;;;;;;;;4854912;29;20418;-81
2021/12/18 01:12:25;;;;;;;0.00;0.00;;;;;;;;;;4868247;29;20124;-81
2021/12/18 01:15:12;;;;;;;0.00;0.00;;;;;;;;;;4853477;29;20037;-81
2021/12/18 01:22:48;;;;;;;0.00;0.00;;;;;;;;;;4869822;29;20421;-80
2021/12/18 01:25:16;;;;;;;0.00;0.00;;;;;;;;;;4854330;29;20037;-80
2021/12/18 01:27:42;;;;;;;0.00;0.00;;;;;;;;;;4850118;29;20032;-81
2021/12/18 01:30:10;;;;;;;0.00;0.00;;;;;;;;;;4851932;29;20717;-81
2021/12/18 01:32:36;;;;;;;0.00;0.00;;;;;;;;;;4850951;29;20488;-80
2021/12/18 01:35:03;;;;;;;0.00;0.00;;;;;;;;;;4856819;29;20481;-81
2021/12/18 01:37:29;;;;;;;0.00;0.00;;;;;;;;;;4855238;29;20056;-80
2021/12/18 01:39:56;;;;;;;0.00;0.00;;;;;;;;;;4852746;29;20533;-80
2021/12/18 01:45:17;;;;;;;0.00;0.00;;;;;;;;;;4868838;29;20551;-81
2021/12/18 01:53:12;;;;;;;0.00;0.00;;;;;;;;;;4872253;29;20044;-80
2021/12/18 01:55:40;;;;;;;0.00;0.00;;;;;;;;;;4854919;29;20277;-80
2021/12/18 01:58:07;;;;;;;0.60;0.60;;;;;;;;;;4868830;29;20508;-82
2021/12/18 02:00:36;;;;;;;0.00;0.00;;;;;;;;;;4862731;29;20124;-80
2021/12/18 02:03:02;;;;;;;0.00;0.00;;;;;;;;;;4846431;29;20694;-81
2021/12/18 02:05:28;;;;;;;0.00;0.00;;;;;;;;;;4857598;29;20534;-80
2021/12/18 02:07:55;;;;;;;0.22;0.17;;;;;;;;;;4848049;29;20557;-82
2021/12/18 02:10:28;;;;;;;0.00;0.00;;;;;;;;;;4855962;29;20029;-81
2021/12/18 02:20:57;;;;;;;0.00;0.00;;;;;;;;;;4865830;29;20083;-81
2021/12/18 02:23:24;;;;;;;0.00;0.00;;;;;;;;;;4868541;29;20450;-80
2021/12/18 02:25:51;;;;;;;0.00;0.00;;;;;;;;;;4853643;29;20401;-82
2021/12/18 02:28:21;;;;;;;0.00;0.00;;;;;;;;;;4867158;29;20036;-81
2021/12/18 02:30:48;;;;;;;0.00;0.00;;;;;;;;;;4853719;29;20033;-81
2021/12/18 02:33:15;;;;;;;0.00;0.00;;;;;;;;;;4860159;29;20049;-80
2021/12/18 02:35:46;;;;;;;0.00;0.00;;;;;;;;;;4868593;29;20484;-81
2021/12/18 02:38:21;;;;;;;0.00;0.00;;;;;;;;;;4856060;29;20164;-80
2021/12/18 02:43:34;;;;;;;0.00;0.00;;;;;;;;;;4869925;29;20679;-80
2021/12/18 02:46:06;;;;;;;0.00;0.00;;;;;;;;;;4856190;29;20044;-81
2021/12/18 02:48:47;;;;;;;0.00;0.00;;;;;;;;;;4848646;29;20522;-80
2021/12/18 02:51:14;;;;;;;0.00;0.00;;;;;;;;;;4853099;29;20487;-81
2021/12/18 02:53:45;;;;;;;0.00;0.00;;;;;;;;;;4837092;29;20037;-80
2021/12/18 02:56:12;;;;;;;0.00;0.00;;;;;;;;;;4834875;29;20089;-80
2021/12/18 02:58:39;;;;;;;0.13;0.13;;;;;;;;;;4852390;29;20098;-81
2021/12/18 03:01:09;;;;;;;0.00;0.00;;;;;;;;;;4852097;29;20563;-81
2021/12/18 03:03:38;;;;;;;0.00;0.00;;;;;;;;;;4850661;29;20034;-80
2021/12/18 03:08:43;;;;;;;0.00;0.00;;;;;;;;;;4852941;29;20038;-80
2021/12/18 03:22:42;;;;;;;0.00;0.00;;;;;;;;;;4851810;29;20030;-80
2021/12/18 03:24:58;;;;;;;0.00;0.00;;;;;;;;;;4851136;29;20037;-80
2021/12/18 03:27:24;;;;;;;0.00;0.00;;;;;;;;;;4837002;29;20029;-81
2021/12/18 03:29:51;;;;;;;0.00;0.00;;;;;;;;;;4834047;29;20029;-81
2021/12/18 03:32:17;;;;;;;0.00;0.00;;;;;;;;;;4838887;29;20504;-80
2021/12/18 03:34:44;;;;;;;0.00;0.00;;;;;;;;;;4853542;29;20056;-81
2021/12/18 03:37:10;;;;;;;0.00;0.00;;;;;;;;;;4850556;29;20150;-81
2021/12/18 03:39:37;;;;;;;0.00;0.00;;;;;;;;;;4853762;29;20079;-80
2021/12/18 03:42:05;;;;;;;0.00;0.00;;;;;;;;;;4836758;29;20034;-80
2021/12/18 03:44:31;;;;;;;0.00;0.00;;;;;;;;;;4834875;29;20038;-80
2021/12/18 03:46:58;;;;;;;0.00;0.00;;;;;;;;;;4836994;29;20190;-81
2021/12/18 03:49:38;;;;;;;0.00;0.00;;;;;;;;;;4868043;29;20053;-80
2021/12/18 03:52:04;;;;;;;0.00;0.00;;;;;;;;;;4872661;29;20513;-80
2021/12/18 03:54:30;;;;;;;0.00;0.00;;;;;;;;;;4852838;29;20132;-80
2021/12/18 03:56:58;;;;;;;0.00;0.00;;;;;;;;;;4867717;29;20033;-80
2021/12/18 03:59:24;;;;;;;0.00;0.00;;;;;;;;;;4868857;29;21052;-80
2021/12/18 04:01:50;;;;;;;0.00;0.00;;;;;;;;;;4871357;29;20072;-81
2021/12/18 04:04:16;;;;;;;0.00;0.00;;;;;;;;;;4869323;29;20037;-81
2021/12/18 04:06:43;;;;;;;0.00;0.00;;;;;;;;;;4870893;29;20044;-81
2021/12/18 04:09:11;;;;;;;0.00;0.00;;;;;;;;;;4854765;29;20045;-81
2021/12/18 04:11:38;;;;;;;0.00;0.00;;;;;;;;;;4851629;29;20557;-81
2021/12/18 04:14:04;;;;;;;0.00;0.00;;;;;;;;;;4854619;29;20037;-80
2021/12/18 04:16:31;;;;;;;0.00;0.00;;;;;;;;;;4869260;29;20489;-80
2021/12/18 04:18:57;;;;;;;0.00;0.00;;;;;;;;;;4855895;29;20032;-80
2021/12/18 04:21:23;;;;;;;0.00;0.00;;;;;;;;;;4855745;29;20033;-80
2021/12/18 04:23:49;;;;;;;0.00;0.00;;;;;;;;;;4854509;29;20504;-80
2021/12/18 04:26:15;;;;;;;0.00;0.00;;;;;;;;;;4871655;29;20044;-80
2021/12/18 04:28:41;;;;;;;0.00;0.00;;;;;;;;;;4855488;29;20025;-80
2021/12/18 04:31:07;;;;;;;0.00;0.00;;;;;;;;;;4868564;29;20076;-81
2021/12/18 04:33:33;;;;;;;0.00;0.00;;;;;;;;;;4864791;29;20025;-81
2021/12/18 04:35:59;;;;;;;0.00;0.00;;;;;;;;;;4857412;29;20557;-81
2021/12/18 04:38:25;;;;;;;0.00;0.00;;;;;;;;;;4868320;29;20037;-81
2021/12/18 04:40:52;;;;;;;0.00;0.00;;;;;;;;;;4871333;29;20389;-80
2021/12/18 04:43:18;;;;;;;0.00;0.00;;;;;;;;;;4867781;29;20370;-81
2021/12/18 04:45:44;;;;;;;0.00;0.00;;;;;;;;;;4852747;29;20040;-80
2021/12/18 04:48:10;;;;;;;0.00;0.00;;;;;;;;;;4867356;29;20032;-81
2021/12/18 04:50:36;;;;;;;0.00;0.00;;;;;;;;;;4836158;29;20170;-80
2021/12/18 04:53:02;;;;;;;0.00;0.00;;;;;;;;;;4851567;29;20029;-80
2021/12/18 04:55:29;;;;;;;0.00;0.00;;;;;;;;;;4850385;29;20046;-81
2021/12/18 04:57:55;;;;;;;0.00;0.00;;;;;;;;;;4835745;29;20485;-81
2021/12/18 05:00:27;;;;;;;0.00;0.00;;;;;;;;;;4850024;29;20096;-80
2021/12/18 05:02:54;;;;;;;0.00;0.00;;;;;;;;;;4835100;29;20099;-81
2021/12/18 05:05:21;;;;;;;0.00;0.00;;;;;;;;;;4831992;29;20041;-80
2021/12/18 05:07:47;;;;;;;0.00;0.00;;;;;;;;;;4852097;29;20105;-81
2021/12/18 05:10:14;;;;;;;0.00;0.00;;;;;;;;;;4835211;29;20403;-81
2021/12/18 05:12:40;;;;;;;0.00;0.00;;;;;;;;;;4835390;29;20033;-81
2021/12/18 05:15:07;;;;;;;0.00;0.00;;;;;;;;;;4849151;29;20653;-81
2021/12/18 05:17:33;;;;;;;0.00;0.00;;;;;;;;;;4833105;29;20085;-81
2021/12/18 05:19:59;;;;;;;0.00;0.00;;;;;;;;;;4835681;29;20727;-81
2021/12/18 05:22:25;;;;;;;0.00;0.00;;;;;;;;;;4836178;29;20041;-80
2021/12/18 05:24:51;;;;;;;0.00;0.00;;;;;;;;;;4835383;29;20371;-80
2021/12/18 05:27:17;;;;;;;0.00;0.00;;;;;;;;;;4832306;29;20242;-81
2021/12/18 05:29:43;;;;;;;0.00;0.00;;;;;;;;;;4834081;29;20383;-80
2021/12/18 05:32:09;;;;;;;0.00;0.00;;;;;;;;;;4828508;29;20037;-80
2021/12/18 05:34:39;;;;;;;0.00;0.00;;;;;;;;;;4831790;29;20108;-80
2021/12/18 05:37:30;;;;;;;0.00;0.00;;;;;;;;;;4832912;29;20061;-80
2021/12/18 05:39:56;;;;;;;0.00;0.00;;;;;;;;;;4834587;29;20571;-81
2021/12/18 05:42:22;;;;;;;0.00;0.00;;;;;;;;;;4838326;29;20041;-81
2021/12/18 05:44:48;;;;;;;0.00;0.00;;;;;;;;;;4833484;29;20044;-80
2021/12/18 05:47:14;;;;;;;0.00;0.00;;;;;;;;;;4847443;29;20312;-80
2021/12/18 05:49:54;;;;;;;0.00;0.00;;;;;;;;;;4839513;29;20067;-80
2021/12/18 05:52:22;;;;;;;0.00;0.00;;;;;;;;;;4850170;29;20117;-80
2021/12/18 05:54:48;;;;;;;0.00;0.00;;;;;;;;;;4835379;29;20040;-81
2021/12/18 05:57:15;;;;;;;0.00;0.00;;;;;;;;;;4848586;29;20033;-80
2021/12/18 05:59:41;;;;;;;0.00;0.00;;;;;;;;;;4835770;29;20124;-81
2021/12/18 06:02:08;;;;;;;0.00;0.00;;;;;;;;;;4831627;29;20509;-81
2021/12/18 06:04:34;;;;;;;0.00;0.00;;;;;;;;;;4850463;29;20739;-81
2021/12/18 06:07:07;;;;;;;0.00;0.00;;;;;;;;;;4845513;29;20041;-80
2021/12/18 06:09:35;;;;;;;0.00;0.00;;;;;;;;;;4838434;29;20112;-81
2021/12/18 06:12:02;;;;;;;0.00;0.00;;;;;;;;;;4833293;29;20025;-81
2021/12/18 06:14:29;;;;;;;0.00;0.00;;;;;;;;;;4835574;29;20034;-80
2021/12/18 06:16:55;;;;;;;0.00;0.00;;;;;;;;;;4830718;29;20068;-81
2021/12/18 06:19:21;;;;;;;0.00;0.00;;;;;;;;;;4840851;29;20052;-81
2021/12/18 06:21:48;;;;;;;0.00;0.00;;;;;;;;;;4851316;29;20038;-80
2021/12/18 06:24:14;;;;;;;0.00;0.00;;;;;;;;;;4836853;29;20537;-81
2021/12/18 06:26:41;;;;;;;0.00;0.00;;;;;;;;;;4837389;29;20029;-80
2021/12/18 06:29:07;;;;;;;0.00;0.00;;;;;;;;;;4836019;29;20061;-81
2021/12/18 06:31:34;;;;;;;0.00;0.00;;;;;;;;;;4854006;29;20089;-82
2021/12/18 06:34:00;;;;;;;0.00;0.00;;;;;;;;;;4834389;29;20034;-81
2021/12/18 06:36:26;;;;;;;0.75;0.75;;;;;;;;;;4837612;29;20041;-81
2021/12/18 06:38:52;;;;;;;0.00;0.00;;;;;;;;;;4848068;29;20090;-80
2021/12/18 06:41:18;;;;;;;0.00;0.00;;;;;;;;;;4850677;29;20443;-81
2021/12/18 06:43:44;;;;;;;0.00;0.00;;;;;;;;;;4835738;29;20121;-80
2021/12/18 06:46:10;;;;;;;0.00;0.00;;;;;;;;;;4837956;29;20607;-80
2021/12/18 06:48:36;;;;;;;0.00;0.00;;;;;;;;;;4837448;29;20119;-81
2021/12/18 06:51:08;;;;;;;0.00;0.00;;;;;;;;;;4858447;29;20052;-81
2021/12/18 06:53:34;;;;;;;0.00;0.00;;;;;;;;;;4855730;29;20033;-81
2021/12/18 06:56:03;;;;;;;0.00;0.00;;;;;;;;;;4853396;29;20029;-81
2021/12/18 06:58:29;;;;;;;0.00;0.00;;;;;;;;;;4871117;29;20688;-80
2021/12/18 07:00:55;;;;;;;0.00;0.00;;;;;;;;;;4863679;29;20567;-81
2021/12/18 07:03:21;;;;;;;0.00;0.00;;;;;;;;;;4871693;29;20109;-81
2021/12/18 07:05:48;;;;;;;0.00;0.00;;;;;;;;;;4858006;29;20120;-80
2021/12/18 07:08:14;;;;;;;0.00;0.00;;;;;;;;;;4856727;29;20037;-81
2021/12/18 07:10:41;;;;;;;0.00;0.00;;;;;;;;;;4856828;29;20085;-81
2021/12/18 07:13:07;;;;;;;0.00;0.00;;;;;;;;;;4854384;29;20025;-82
2021/12/18 07:15:33;;;;;;;0.00;0.00;;;;;;;;;;4871642;29;20033;-80
2021/12/18 07:18:00;;;;;;;0.00;0.00;;;;;;;;;;4871614;29;20029;-82
2021/12/18 07:20:27;;;;;;;0.00;0.00;;;;;;;;;;4853093;29;20025;-81
2021/12/18 07:22:53;;;;;;;0.00;0.00;;;;;;;;;;4868410;29;20072;-81
2021/12/18 07:25:19;;;;;;;0.00;0.00;;;;;;;;;;4855486;29;20033;-80
2021/12/18 07:27:46;;;;;;;0.00;0.00;;;;;;;;;;4859611;29;20037;-80
2021/12/18 07:30:13;;;;;;;0.00;0.00;;;;;;;;;;4855393;29;20120;-80
2021/12/18 07:32:40;;;;;;;0.00;0.00;;;;;;;;;;4856481;29;20038;-80
2021/12/18 07:35:06;;;;;;;0.00;0.00;;;;;;;;;;4862095;29;20044;-79
2021/12/18 07:37:32;;;;;;;0.00;0.00;;;;;;;;;;4856914;29;20128;-80
2021/12/18 07:39:59;;;;;;;0.00;0.00;;;;;;;;;;4871969;29;20056;-81
2021/12/18 07:42:25;;;;;;;0.00;0.00;;;;;;;;;;4853504;29;20116;-80
2021/12/18 07:44:52;;;;;;;0.00;0.00;;;;;;;;;;4866385;29;20085;-80
2021/12/18 07:47:18;;;;;;;0.00;0.00;;;;;;;;;;4856165;29;20040;-80
2021/12/18 07:49:44;;;;;;;0.00;0.00;;;;;;;;;;4856020;29;20029;-82
2021/12/18 07:52:12;;;;;;;0.00;0.00;;;;;;;;;;4858620;29;20041;-81
2021/12/18 07:54:38;;;;;;;0.00;0.00;;;;;;;;;;4855991;29;20061;-81
2021/12/18 07:57:04;;;;;;;0.35;0.35;;;;;;;;;;4853179;29;20545;-80
2021/12/18 07:59:31;;;;;;;0.00;0.00;;;;;;;;;;4871858;29;20043;-81
2021/12/18 08:01:57;;;;;;;0.00;0.00;;;;;;;;;;4864388;29;20390;-81
2021/12/18 08:04:23;;;;;;;0.00;0.00;;;;;;;;;;4853094;29;20618;-81
2021/12/18 08:06:49;;;;;;;0.00;0.00;;;;;;;;;;4874077;29;20104;-81
2021/12/18 08:09:16;;;;;;;0.00;0.00;;;;;;;;;;4855050;29;20482;-80
2021/12/18 08:11:42;;;;;;;0.00;0.00;;;;;;;;;;4865810;29;20037;-81
2021/12/18 08:14:08;;;;;;;0.00;0.00;;;;;;;;;;4855525;29;20069;-81
2021/12/18 08:16:35;;;;;;;0.00;0.00;;;;;;;;;;4854246;29;20093;-81
2021/12/18 08:19:01;;;;;;;0.00;0.00;;;;;;;;;;4874686;29;20112;-81
2021/12/18 08:21:27;;;;;;;0.00;0.00;;;;;;;;;;4870338;29;20485;-80
2021/12/18 08:23:53;;;;;;;0.00;0.00;;;;;;;;;;4850896;29;21560;-81
2021/12/18 08:26:19;;;;;;;0.00;0.00;;;;;;;;;;4854597;29;20037;-80
2021/12/18 08:28:45;;;;;;;0.00;0.00;;;;;;;;;;4853141;29;20021;-81
2021/12/18 08:31:11;;;;;;;0.00;0.00;;;;;;;;;;4857776;29;20116;-85
2021/12/18 08:33:37;;;;;;;0.00;0.00;;;;;;;;;;4872796;29;20033;-83
2021/12/18 08:36:04;;;;;;;0.00;0.00;;;;;;;;;;4853188;29;20041;-84
2021/12/18 08:38:30;;;;;;;0.00;0.00;;;;;;;;;;4856113;29;20061;-85
2021/12/18 08:40:56;;;;;;;0.00;0.00;;;;;;;;;;4871334;29;20378;-85
2021/12/18 08:43:23;;;;;;;0.00;0.00;;;;;;;;;;4855293;29;20047;-85
2021/12/18 08:45:49;;;;;;;0.00;0.00;;;;;;;;;;4871000;29;20119;-85
2021/12/18 08:48:15;;;;;;;0.00;0.00;;;;;;;;;;4871702;29;20055;-85
2021/12/18 08:50:41;;;;;;;0.00;0.00;;;;;;;;;;4870362;29;20109;-85
2021/12/18 08:53:08;;;;;;;0.00;0.00;;;;;;;;;;4852753;29;20035;-81
2021/12/18 08:55:34;;;;;;;0.00;0.00;;;;;;;;;;4867207;29;20578;-81
2021/12/18 08:58:00;;;;;;;0.00;0.00;;;;;;;;;;4867901;29;20029;-81
2021/12/18 09:00:30;;;;;;;0.00;0.00;;;;;;;;;;4851535;29;20127;-80
2021/12/18 09:03:00;;;;;;;0.00;0.00;;;;;;;;;;4853370;29;20033;-82
2021/12/18 09:05:27;;;;;;;0.00;0.00;;;;;;;;;;4866972;29;20073;-81
2021/12/18 09:07:53;;;;;;;0.00;0.00;;;;;;;;;;4856720;29;20120;-81
2021/12/18 09:10:20;;;;;;;0.00;0.00;;;;;;;;;;4855993;29;20029;-82
2021/12/18 09:12:47;;;;;;;0.00;0.00;;;;;;;;;;4866006;29;20040;-81
2021/12/18 09:15:13;;;;;;;0.00;0.00;;;;;;;;;;4854321;29;20038;-82
2021/12/18 09:17:40;;;;;;;0.00;0.00;;;;;;;;;;4856389;29;20519;-81
2021/12/18 09:20:06;;;;;;;0.00;0.00;;;;;;;;;;4868076;29;20033;-81
2021/12/18 09:22:32;;;;;;;0.00;0.00;;;;;;;;;;4852911;29;20056;-81
2021/12/18 09:24:59;;;;;;;0.00;0.00;;;;;;;;;;4867644;29;20121;-81
2021/12/18 09:27:25;;;;;;;0.00;0.00;;;;;;;;;;4848934;29;20048;-80
2021/12/18 09:29:52;;;;;;;0.00;0.00;;;;;;;;;;4850832;29;20482;-80
2021/12/18 09:32:18;;;;;;;0.00;0.00;;;;;;;;;;4869928;29;20441;-81
2021/12/18 09:34:44;;;;;;;0.00;0.00;;;;;;;;;;4863163;29;20521;-80
2021/12/18 09:37:10;;;;;;;0.00;0.00;;;;;;;;;;4854221;29;20045;-81
2021/12/18 09:39:36;;;;;;;0.00;0.00;;;;;;;;;;4862852;29;20509;-81
2021/12/18 09:42:03;;;;;;;0.00;0.00;;;;;;;;;;4868143;29;20047;-81
2021/12/18 09:44:31;;;;;;;0.00;0.00;;;;;;;;;;4852632;29;20037;-81
2021/12/18 09:46:57;;;;;;;0.00;0.00;;;;;;;;;;4853914;29;20065;-81
2021/12/18 09:49:23;;;;;;;0.00;0.00;;;;;;;;;;4852785;29;20029;-81
2021/12/18 09:51:50;;;;;;;0.00;0.00;;;;;;;;;;4869715;29;20049;-81
2021/12/18 09:54:18;;;;;;;0.10;0.10;;;;;;;;;;4869325;29;20032;-80
2021/12/18 09:56:45;;;;;;;0.00;0.00;;;;;;;;;;4850185;29;20628;-81
2021/12/18 09:59:11;;;;;;;0.00;0.00;;;;;;;;;;4852099;29;20040;-81
2021/12/18 10:01:37;;;;;;;0.00;0.00;;;;;;;;;;4855110;29;20029;-82
2021/12/18 10:04:04;;;;;;;0.00;0.00;;;;;;;;;;4867918;29;20041;-81
2021/12/18 10:06:39;;;;;;;0.00;0.00;;;;;;;;;;4853190;29;20053;-81
2021/12/18 10:09:06;;;;;;;0.00;0.00;;;;;;;;;;4851215;29;20724;-81
2021/12/18 10:11:32;;;;;;;0.00;0.00;;;;;;;;;;4863598;29;20033;-82
2021/12/18 10:14:01;;;;;;;0.00;0.00;;;;;;;;;;4851953;29;20536;-82
2021/12/18 10:16:28;;;;;;;0.00;0.00;;;;;;;;;;4854321;29;20559;-78
2021/12/18 10:18:55;;;;;;;0.00;0.00;;;;;;;;;;4869859;29;20037;-82
2021/12/18 10:21:22;;;;;;;0.00;0.00;;;;;;;;;;4854247;29;20489;-81
2021/12/18 10:23:50;;;;;;;0.00;0.00;;;;;;;;;;4864490;29;20033;-81
2021/12/18 10:26:35;;;;;;;0.00;0.00;;;;;;;;;;4853142;29;20037;-80
2021/12/18 10:29:01;;;;;;;0.00;0.00;;;;;;;;;;4850116;29;20248;-81
2021/12/18 10:31:45;;;;;;;0.00;0.00;;;;;;;;;;4852420;29;20115;-82
2021/12/18 10:34:15;;;;;;;0.20;0.20;;;;;;;;;;4864887;29;20416;-80
2021/12/18 10:36:41;;;;;;;0.00;0.00;;;;;;;;;;4867168;29;20593;-81
2021/12/18 10:39:07;;;;;;;0.00;0.00;;;;;;;;;;4854558;29;20069;-81
2021/12/18 10:41:37;;;;;;;0.00;0.00;;;;;;;;;;4854008;29;20572;-80
2021/12/18 10:44:03;;;;;;;0.00;0.00;;;;;;;;;;4850299;29;20629;-81
2021/12/18 10:46:29;;;;;;;0.00;0.00;;;;;;;;;;4850241;29;20083;-81
2021/12/18 10:49:07;;;;;;;0.00;0.00;;;;;;;;;;4855433;29;20021;-85
2021/12/18 10:51:33;;;;;;;0.00;0.00;;;;;;;;;;4855380;29;20784;-86
2021/12/18 10:54:03;;;;;;;0.00;0.00;;;;;;;;;;4854309;29;20537;-85
2021/12/18 10:56:33;;;;;;;0.00;0.00;;;;;;;;;;4852375;29;20318;-86
2021/12/18 10:59:02;;;;;;;0.00;0.00;;;;;;;;;;4866915;29;20116;-85
2021/12/18 11:01:29;;;;;;;0.00;0.00;;;;;;;;;;4857876;29;20047;-85
2021/12/18 11:03:55;;;;;;;0.00;0.00;;;;;;;;;;4852443;29;20533;-85
2021/12/18 11:06:28;;;;;;;1.02;0.98;;;;;;;;;;4875467;29;20036;-85
2021/12/18 11:08:55;;;;;;;0.00;0.00;;;;;;;;;;4854401;29;20032;-85
2021/12/18 11:14:23;;;;;;;0.00;0.00;;;;;;;;;;4872269;29;20040;-85
2021/12/18 11:16:59;;;;;;;0.00;0.00;;;;;;;;;;4857812;29;20036;-86
2021/12/18 11:19:26;;;;;;;0.00;0.00;;;;;;;;;;4861138;29;20033;-85
2021/12/18 11:21:54;;;;;;;0.00;0.00;;;;;;;;;;4860019;29;20393;-86
2021/12/18 11:24:21;;;;;;;0.00;0.00;;;;;;;;;;4871783;29;22554;-85
2021/12/18 11:26:50;;;;;;;0.00;0.00;;;;;;;;;;4855578;29;20466;-85
2021/12/18 11:29:46;;;;;;;0.00;0.00;;;;;;;;;;4859298;29;20036;-85
2021/12/18 11:32:24;;;;;;;0.00;0.00;;;;;;;;;;4852715;29;20093;-85
2021/12/18 11:34:53;;;;;;;0.00;0.00;;;;;;;;;;4838142;29;20170;-85
2021/12/18 11:37:20;;;;;;;0.00;0.00;;;;;;;;;;4862184;29;20098;-86
2021/12/18 11:39:48;;;;;;;0.00;0.00;;;;;;;;;;4873230;29;20040;-86
2021/12/18 11:42:22;;;;;;;0.00;0.00;;;;;;;;;;4871931;29;20474;-85
2021/12/18 11:44:56;;;;;;;0.00;0.00;;;;;;;;;;4865815;29;20025;-86
2021/12/18 11:47:22;;;;;;;0.00;0.00;;;;;;;;;;4867453;29;20037;-84
2021/12/18 11:49:48;;;;;;;0.00;0.00;;;;;;;;;;4854467;29;20036;-86
2021/12/18 11:52:28;;;;;;;0.00;0.00;;;;;;;;;;4857405;29;20049;-85
2021/12/18 11:54:56;;;;;;;0.00;0.00;;;;;;;;;;4854418;29;20025;-85
2021/12/18 11:57:37;;;;;;;0.00;0.00;;;;;;;;;;4869969;29;21272;-84
2021/12/18 12:00:08;;;;;;;0.00;0.00;;;;;;;;;;4857419;29;20065;-85
2021/12/18 12:02:45;;;;;;;0.00;0.00;;;;;;;;;;4854301;29;20045;-85
2021/12/18 12:05:11;;;;;;;0.15;0.15;;;;;;;;;;4856374;29;20049;-85
2021/12/18 12:07:38;;;;;;;0.00;0.00;;;;;;;;;;4870489;29;20123;-86
2021/12/18 12:10:20;;;;;;;0.00;0.00;;;;;;;;;;4854652;29;20028;-84
2021/12/18 12:12:48;;;;;;;0.00;0.00;;;;;;;;;;4855820;29;20049;-85
2021/12/18 12:15:15;;;;;;;0.00;0.00;;;;;;;;;;4852736;29;20033;-84
2021/12/18 12:18:01;;;;;;;0.00;0.00;;;;;;;;;;4867133;29;20085;-85
2021/12/18 12:20:41;;;;;;;0.00;0.00;;;;;;;;;;4854085;29;20120;-86
2021/12/18 12:23:09;;;;;;;0.00;0.00;;;;;;;;;;4853388;29;20124;-85
2021/12/18 12:25:44;;;;;;;0.00;0.00;;;;;;;;;;4854906;29;20128;-85
2021/12/18 12:28:12;;;;;;;0.00;0.00;;;;;;;;;;4852629;29;20037;-84
2021/12/18 12:30:43;;;;;;;0.00;0.00;;;;;;;;;;4871946;29;20061;-85
2021/12/18 12:33:11;;;;;;;0.00;0.00;;;;;;;;;;4854915;29;20044;-85
2021/12/18 12:35:54;;;;;;;0.00;0.00;;;;;;;;;;4869013;29;20025;-85
2021/12/18 12:38:24;;;;;;;0.00;0.00;;;;;;;;;;4867825;29;20144;-85
2021/12/18 12:40:50;;;;;;;0.00;0.00;;;;;;;;;;4854887;29;20033;-85
2021/12/18 12:43:23;;;;;;;0.00;0.00;;;;;;;;;;4871539;29;20068;-86
2021/12/18 12:45:52;;;;;;;0.00;0.00;;;;;;;;;;4853819;29;20475;-85
2021/12/18 12:48:19;;;;;;;0.00;0.00;;;;;;;;;;4868636;29;20133;-86
2021/12/18 12:50:54;;;;;;;0.10;0.10;;;;;;;;;;4868805;29;20025;-86
2021/12/18 12:53:20;;;;;;;0.00;0.00;;;;;;;;;;4838625;29;20137;-85
2021/12/18 12:55:47;;;;;;;0.00;0.00;;;;;;;;;;4838752;29;20041;-85
2021/12/18 12:58:18;;;;;;;0.00;0.00;;;;;;;;;;4834952;29;20093;-85
2021/12/18 13:00:45;;;;;;;0.00;0.00;;;;;;;;;;4836845;29;20057;-85
2021/12/18 13:03:16;;;;;;;0.00;0.00;;;;;;;;;;4831337;29;20049;-85
2021/12/18 13:05:47;;;;;;;0.00;0.00;;;;;;;;;;4835099;29;20109;-85
2021/12/18 13:08:13;;;;;;;6.85;0.73;;;;;;;;;;4834742;29;20041;-84
2021/12/18 13:10:41;;;;;;;4.70;1.40;;;;;;;;;;4852419;29;20037;-85
2021/12/18 13:13:08;;;;;;;3.30;1.20;;;;;;;;;;4847330;29;20650;-80
2021/12/18 13:15:53;;;;;;;0.93;0.82;;;;;;;;;;4836806;29;20037;-82
2021/12/18 13:18:20;;;;;;;6.65;1.67;;;;;;;;;;4830877;29;20065;-85
2021/12/18 13:20:55;;;;;;;13.93;2.45;;;;;;;;;;4828792;29;20037;-86
2021/12/18 13:23:22;;;;;;;13.55;2.67;;;;;;;;;;4836253;29;20360;-85
2021/12/18 13:25:53;;;;;;;8.18;2.30;;;;;;;;;;4848576;29;20068;-85
2021/12/18 13:28:19;;;;;;;5.70;2.30;;;;;;;;;;4849532;29;20033;-85
2021/12/18 13:30:48;;;;;;;7.97;2.50;;;;;;;;;;4836186;29;20722;-84
2021/12/18 13:33:14;;;;;;;24.50;2.67;;;;;;;;;;4851087;29;20427;-85
2021/12/18 13:35:40;;;;;;;10.50;2.08;;;;;;;;;;4835899;29;20411;-85
2021/12/18 13:38:11;;;;;;;22.33;2.97;;;;;;;;;;4837360;29;20662;-86
2021/12/18 13:40:37;;;;;;;20.80;3.92;;;;;;;;;;4853825;29;20541;-84
2021/12/18 13:43:04;;;;;;;17.52;3.00;;;;;;;;;;4847074;29;20041;-85
2021/12/18 13:45:31;;;;;;;19.25;3.70;;;;;;;;;;4837617;29;20051;-84
2021/12/18 13:48:01;;;;;;;13.95;3.08;;;;;;;;;;4851999;29;20034;-85
2021/12/18 13:50:27;;;;;;;19.85;3.20;;;;;;;;;;4849888;29;20124;-86
2021/12/18 13:53:04;;;;;;;9.90;3.15;;;;;;;;;;4837528;29;20132;-85
2021/12/18 13:55:36;;;;;;;10.82;3.03;;;;;;;;;;4834114;29;20078;-84
2021/12/18 13:58:02;;;;;;;5.53;2.70;;;;;;;;;;4838184;29;20572;-85
2021/12/18 14:00:29;;;;;;;17.48;3.53;;;;;;;;;;4835715;29;20033;-86
2021/12/18 14:02:55;;;;;;;17.33;3.63;;;;;;;;;;4835458;29;20037;-85
2021/12/18 14:05:21;;;;;;;13.73;3.30;;;;;;;;;;4848588;29;20045;-84
2021/12/18 14:07:47;;;;;;;6.78;3.05;;;;;;;;;;4852281;29;20545;-85
2021/12/18 14:10:13;;;;;;;15.65;3.17;;;;;;;;;;4833392;29;20470;-86
2021/12/18 14:12:39;;;;;;;11.77;2.83;;;;;;;;;;4849612;29;20104;-86
2021/12/18 14:15:16;;;;;;;9.82;2.60;;;;;;;;;;4837621;29;20037;-85
2021/12/18 14:17:42;;;;;;;19.80;3.85;;;;;;;;;;4836534;29;20109;-83
2021/12/18 14:20:10;;;;;;;16.55;2.92;;;;;;;;;;4852403;29;20064;-86
2021/12/18 14:22:37;;;;;;;15.05;3.45;;;;;;;;;;4834609;29;20033;-86
2021/12/18 14:25:04;;;;;;;16.40;3.65;;;;;;;;;;4835173;29;20494;-85
2021/12/18 14:27:38;;;;;;;13.32;3.85;;;;;;;;;;4836849;29;20052;-83
2021/12/18 14:30:11;;;;;;;12.27;3.25;;;;;;;;;;4851226;29;20030;-86
2021/12/18 14:32:37;;;;;;;14.65;3.80;;;;;;;;;;4853033;29;20487;-84
2021/12/18 14:35:05;;;;;;;25.52;3.90;;;;;;;;;;4836730;29;20124;-85
2021/12/18 14:37:30;;;;;;;10.27;3.17;;;;;;;;;;4851098;29;20245;-84
2021/12/18 14:39:57;;;;;;;15.55;2.97;;;;;;;;;;4836463;29;20034;-85
2021/12/18 14:45:08;;;;;;;18.70;3.08;;;;;;;;;;4856928;29;20036;-85
2021/12/18 14:47:34;;;;;;;9.20;1.90;;;;;;;;;;4842259;29;20026;-85
2021/12/18 14:50:06;;;;;;;10.23;2.75;;;;;;;;;;4855526;29;20308;-83
2021/12/18 14:53:00;;;;;;;10.93;2.60;;;;;;;;;;4865534;29;20057;-83
2021/12/18 14:55:28;;;;;;;13.85;3.05;;;;;;;;;;4859753;29;20053;-85
2021/12/18 14:57:54;;;;;;;14.73;3.70;;;;;;;;;;4863767;29;20059;-84
2021/12/18 15:00:43;;;;;;;15.30;3.53;;;;;;;;;;4855759;29;20033;-85
2021/12/18 15:03:14;;;;;;;11.45;3.50;;;;;;;;;;4851565;29;20438;-84
2021/12/18 15:05:45;;;;;;;14.27;3.15;;;;;;;;;;4858971;29;20029;-85
2021/12/18 15:08:16;;;;;;;12.00;3.13;;;;;;;;;;4867814;29;20120;-84
2021/12/18 15:10:46;;;;;;;13.43;3.65;;;;;;;;;;4870805;29;20084;-85
2021/12/18 15:13:13;;;;;;;15.02;3.90;;;;;;;;;;4869414;29;20421;-84
2021/12/18 15:15:39;;;;;;;13.38;4.40;;;;;;;;;;4851806;29;20073;-85
2021/12/18 15:18:05;;;;;;;10.70;3.60;;;;;;;;;;4853585;29;20026;-85
2021/12/18 15:20:31;;;;;;;10.35;2.90;;;;;;;;;;4870271;29;20044;-84
2021/12/18 15:22:57;;;;;;;5.07;2.95;;;;;;;;;;4857183;29;20065;-86
2021/12/18 15:25:24;;;;;;;6.60;2.25;;;;;;;;;;4858287;29;20033;-85
2021/12/18 15:27:50;;;;;;;5.30;2.22;;;;;;;;;;4870716;29;20512;-85
2021/12/18 15:30:16;;;;;;;6.53;2.30;;;;;;;;;;4873611;29;20025;-84